Time;durP1;ratioP1;P1;durP2;ratioP2;P2;SDS_P1;SDS_P2;PMS_P1;PMS_P2;Temp;Humidity;BMP_temperature;BMP_pressure;BME280_temperature;BME280_humidity;BME280_pressure;Samples;Min_cycle;Max_cycle;Signal;HPM_P1;HPM_P2
2021/08/07 00:00:23;;;;;;;;;;;;;;;29.61;37.01;96673.03;5068829;28;1203;-56
2021/08/07 00:02:48;;;;;;;;;;;;;;;29.79;36.76;96674.69;5068344;28;1979;-53
2021/08/07 00:05:13;;;;;;;;;;;;;;;29.67;36.88;96680.34;5070335;28;1214;-54
2021/08/07 00:07:39;;;;;;;;;;;;;;;29.58;37.04;96684.00;5071422;28;1600;-53
2021/08/07 00:10:04;;;;;;;;;;;;;;;29.65;36.96;96690.31;5072162;28;1222;-54
2021/08/07 00:12:29;;;;;;;;;;;;;;;29.55;36.90;96679.03;5070973;28;1607;-53
2021/08/07 00:14:55;;;;;;;;;;;;;;;29.61;37.07;96683.66;5070914;28;1452;-54
2021/08/07 00:17:20;;;;;;;;;;;;;;;29.78;36.71;96686.28;5070779;28;1440;-54
2021/08/07 00:19:45;;;;;;;;;;;;;;;29.83;36.53;96681.31;5070026;28;1656;-53
2021/08/07 00:22:10;;;;;;;;;;;;;;;29.74;36.88;96683.97;5073043;28;1167;-53
2021/08/07 00:24:35;;;;;;;;;;;;;;;29.64;36.86;96678.03;5071435;28;1914;-53
2021/08/07 00:27:01;;;;;;;;;;;;;;;29.72;36.49;96685.97;5070177;28;1571;-54
2021/08/07 00:29:26;;;;;;;;;;;;;;;29.79;36.59;96686.16;5069772;28;1461;-56
2021/08/07 00:31:51;;;;;;;;;;;;;;;29.69;36.80;96683.66;5069562;28;1565;-51
2021/08/07 00:34:16;;;;;;;;;;;;;;;29.74;36.72;96683.97;5071701;28;1458;-54
2021/08/07 00:36:42;;;;;;;;;;;;;;;29.74;36.69;96686.63;5071602;28;1294;-54
2021/08/07 00:39:07;;;;;;;;;;;;;;;29.82;36.53;96680.47;5071818;28;1209;-55
2021/08/07 00:41:32;;;;;;;;;;;;;;;29.84;36.31;96675.00;5068481;28;1643;-54
2021/08/07 00:43:57;;;;;;;;;;;;;;;29.78;36.61;96680.97;5068551;28;1981;-55
2021/08/07 00:46:22;;;;;;;;;;;;;;;29.66;36.91;96678.69;5071783;28;1229;-53
2021/08/07 00:48:49;;;;;;;;;;;;;;;29.79;36.67;96675.50;5071812;28;1179;-54
2021/08/07 00:51:14;;;;;;;;;;;;;;;29.84;36.27;96675.81;5070739;28;1175;-53
2021/08/07 00:53:40;;;;;;;;;;;;;;;29.82;36.48;96669.84;5066293;28;1754;-54
2021/08/07 00:56:05;;;;;;;;;;;;;;;29.77;36.66;96671.34;5060157;28;1552;-53
2021/08/07 00:58:30;;;;;;;;;;;;;;;29.75;36.42;96663.53;5070174;28;1097;-53
2021/08/07 01:00:55;;;;;;;;;;;;;;;29.78;36.40;96665.84;5064898;28;1549;-54
2021/08/07 01:03:45;;;;;;;;;;;;;;;29.74;36.48;96657.41;5067794;28;1987;-53
2021/08/07 01:06:30;;;;;;;;;;;;;;;29.62;36.68;96648.09;5068023;28;1375;-54
2021/08/07 01:08:55;;;;;;;;;;;;;;;29.72;36.49;96658.56;5059161;28;1621;-55
2021/08/07 01:11:27;;;;;;;;;;;;;;;29.68;36.51;96654.59;5067936;28;1544;-53
2021/08/07 01:13:54;;;;;;;;;;;;;;;29.53;36.75;96637.66;5101350;22;1757;-94
2021/08/07 01:16:24;;;;;;;;;;;;;;;29.73;36.75;96642.47;5073144;28;1235;-94
2021/08/07 01:18:50;;;;;;;;;;;;;;;29.83;36.45;96638.78;5057710;28;1285;-94
2021/08/07 01:21:15;;;;;;;;;;;;;;;29.85;36.31;96637.59;5056601;28;1600;-95
2021/08/07 01:23:49;;;;;;;;;;;;;;;29.86;36.46;96638.44;5055594;28;1962;-93
2021/08/07 01:26:32;;;;;;;;;;;;;;;29.79;36.53;96642.78;5071564;28;1084;-94
2021/08/07 01:28:58;;;;;;;;;;;;;;;29.80;36.51;96641.78;5058853;28;1398;-94
2021/08/07 01:31:23;;;;;;;;;;;;;;;29.77;36.56;96642.09;5070439;28;1442;-94
2021/08/07 01:33:48;;;;;;;;;;;;;;;29.81;36.29;96646.94;5071059;28;1270;-94
2021/08/07 01:36:14;;;;;;;;;;;;;;;29.77;36.28;96650.09;5053861;28;899;-94
2021/08/07 01:38:41;;;;;;;;;;;;;;;29.75;36.50;96645.78;5054571;28;1192;-94
2021/08/07 01:41:33;;;;;;;;;;;;;;;29.79;36.51;96635.66;5072613;28;1017;-94
2021/08/07 01:43:58;;;;;;;;;;;;;;;29.84;36.32;96635.94;5077609;28;1994;-94
2021/08/07 01:46:24;;;;;;;;;;;;;;;29.65;36.48;96631.84;5075704;28;1109;-94
2021/08/07 01:49:16;;;;;;;;;;;;;;;29.79;36.40;96633.00;5070717;28;1312;-94
2021/08/07 01:51:43;;;;;;;;;;;;;;;29.68;36.25;96620.88;5046703;28;1370;-94
2021/08/07 01:54:08;;;;;;;;;;;;;;;29.71;36.35;96627.69;5073105;28;1441;-95
2021/08/07 01:56:33;;;;;;;;;;;;;;;29.77;36.30;96629.66;5085268;28;839;-94
2021/08/07 01:59:03;;;;;;;;;;;;;;;29.93;36.08;96626.94;5055110;28;1241;-94
2021/08/07 02:01:28;;;;;;;;;;;;;;;29.78;36.47;96622.50;5055325;28;1205;-94
2021/08/07 02:03:54;;;;;;;;;;;;;;;29.67;36.57;96621.03;5055862;28;1968;-94
2021/08/07 02:06:19;;;;;;;;;;;;;;;29.80;36.05;96623.19;5071465;28;1275;-94
2021/08/07 02:08:45;;;;;;;;;;;;;;;29.83;36.04;96617.50;5088753;28;1188;-94
2021/08/07 02:11:10;;;;;;;;;;;;;;;29.81;36.41;96608.91;5072063;28;1402;-94
2021/08/07 02:13:35;;;;;;;;;;;;;;;29.71;36.31;96611.75;5087357;28;1811;-94
2021/08/07 02:16:01;;;;;;;;;;;;;;;29.79;36.22;96614.38;5055041;28;1204;-93
2021/08/07 02:18:26;;;;;;;;;;;;;;;29.77;36.49;96607.56;5071983;28;1350;-94
2021/08/07 02:20:52;;;;;;;;;;;;;;;29.77;36.36;96620.84;5070643;28;1222;-94
2021/08/07 02:23:17;;;;;;;;;;;;;;;29.82;36.17;96626.50;5070154;28;1898;-94
2021/08/07 02:25:43;;;;;;;;;;;;;;;29.80;36.42;96623.19;5071155;28;1208;-94
2021/08/07 02:28:09;;;;;;;;;;;;;;;29.79;36.43;96626.84;5070005;28;1274;-94
2021/08/07 02:30:34;;;;;;;;;;;;;;;29.78;36.29;96620.66;5070436;28;1311;-94
2021/08/07 02:32:59;;;;;;;;;;;;;;;29.73;36.38;96613.22;5069481;28;1232;-94
2021/08/07 02:35:25;;;;;;;;;;;;;;;29.78;36.15;96625.16;5065826;28;2031;-94
2021/08/07 02:37:50;;;;;;;;;;;;;;;29.78;36.14;96628.66;5049345;28;1350;-94
2021/08/07 02:40:15;;;;;;;;;;;;;;;29.83;36.28;96628.16;5068855;28;1154;-94
2021/08/07 02:42:41;;;;;;;;;;;;;;;29.69;36.27;96634.97;5086357;28;1318;-94
2021/08/07 02:45:06;;;;;;;;;;;;;;;29.78;36.18;96644.59;5052535;28;1878;-94
2021/08/07 02:47:32;;;;;;;;;;;;;;;29.78;36.21;96635.78;5052697;28;1659;-94
2021/08/07 02:49:57;;;;;;;;;;;;;;;29.75;36.46;96624.50;5053304;28;1267;-94
2021/08/07 02:52:22;;;;;;;;;;;;;;;29.81;36.19;96620.34;5047525;28;1287;-94
2021/08/07 02:54:48;;;;;;;;;;;;;;;29.77;36.27;96620.84;5051961;28;1293;-94
2021/08/07 02:57:13;;;;;;;;;;;;;;;29.73;36.18;96623.84;5052629;28;1342;-94
2021/08/07 02:59:39;;;;;;;;;;;;;;;29.61;36.40;96619.88;5068669;28;1462;-94
2021/08/07 03:02:04;;;;;;;;;;;;;;;29.71;36.32;96620.56;5051782;28;1346;-94
2021/08/07 03:04:29;;;;;;;;;;;;;;;29.77;36.22;96612.88;5050404;28;1914;-94
2021/08/07 03:06:54;;;;;;;;;;;;;;;29.75;36.10;96611.22;5051143;28;1248;-94
2021/08/07 03:09:20;;;;;;;;;;;;;;;29.71;36.36;96599.28;5068438;28;1045;-94
2021/08/07 03:11:45;;;;;;;;;;;;;;;29.80;36.00;96597.44;5067327;28;1997;-94
2021/08/07 03:14:10;;;;;;;;;;;;;;;29.75;36.16;96589.97;5051631;28;1865;-94
2021/08/07 03:16:36;;;;;;;;;;;;;;;29.79;36.29;96594.94;5051840;28;1387;-94
2021/08/07 03:19:01;;;;;;;;;;;;;;;29.79;36.20;96595.78;5087025;28;1825;-94
2021/08/07 03:21:26;;;;;;;;;;;;;;;29.75;36.07;96591.78;5055919;28;1330;-95
2021/08/07 03:23:51;;;;;;;;;;;;;;;29.67;36.33;96582.00;5066744;28;1971;-93
2021/08/07 03:26:17;;;;;;;;;;;;;;;29.79;36.11;96585.16;5047645;28;1993;-93
2021/08/07 03:28:42;;;;;;;;;;;;;;;29.69;36.09;96595.94;5066139;28;1100;-94
2021/08/07 03:31:07;;;;;;;;;;;;;;;29.70;36.18;96596.78;5072143;28;1323;-94
2021/08/07 03:33:33;;;;;;;;;;;;;;;29.81;36.02;96607.06;5069454;28;1344;-94
2021/08/07 03:35:58;;;;;;;;;;;;;;;29.80;36.04;96605.41;5069459;28;1351;-93
2021/08/07 03:38:24;;;;;;;;;;;;;;;29.63;36.42;96591.34;5085688;28;1287;-94
2021/08/07 03:40:49;;;;;;;;;;;;;;;29.73;36.07;96597.28;5070575;28;1206;-94
2021/08/07 03:43:14;;;;;;;;;;;;;;;29.63;36.21;96601.13;5072508;28;2038;-94
2021/08/07 03:45:39;;;;;;;;;;;;;;;29.61;36.43;96600.47;5071964;28;1171;-95
2021/08/07 03:48:05;;;;;;;;;;;;;;;29.66;36.15;96617.56;5071712;28;1581;-94
2021/08/07 03:50:30;;;;;;;;;;;;;;;29.81;36.09;96624.84;5055517;28;1135;-94
2021/08/07 03:52:55;;;;;;;;;;;;;;;29.65;36.28;96623.06;5073509;28;1225;-94
2021/08/07 03:55:21;;;;;;;;;;;;;;;29.65;36.36;96628.38;5056603;28;1224;-94
2021/08/07 03:57:58;;;;;;;;;;;;;;;29.75;36.11;96621.84;5054782;28;1308;-93
2021/08/07 04:00:24;;;;;;;;;;;;;;;29.51;36.69;96608.63;5047347;28;1406;-94
2021/08/07 04:02:49;;;;;;;;;;;;;;;29.69;36.12;96593.28;5057359;28;1430;-94
2021/08/07 04:05:14;;;;;;;;;;;;;;;29.77;36.18;96600.41;5054280;28;1879;-94
2021/08/07 04:07:40;;;;;;;;;;;;;;;29.79;36.13;96593.13;5055033;28;1238;-94
2021/08/07 04:10:05;;;;;;;;;;;;;;;29.65;36.28;96586.69;5055033;28;1231;-94
2021/08/07 04:12:30;;;;;;;;;;;;;;;29.69;36.02;96587.16;5055147;28;1963;-94
2021/08/07 04:14:56;;;;;;;;;;;;;;;29.72;36.16;96592.13;5073470;28;857;-94
2021/08/07 04:17:21;;;;;;;;;;;;;;;29.67;35.99;96589.97;5049694;28;1260;-94
2021/08/07 04:19:46;;;;;;;;;;;;;;;29.77;36.16;96600.41;5037383;28;1284;-94
2021/08/07 04:22:12;;;;;;;;;;;;;;;29.82;35.84;96591.94;5066164;28;1278;-94
2021/08/07 04:24:40;;;;;;;;;;;;;;;29.66;35.96;96585.66;5055755;28;1898;-94
2021/08/07 04:27:05;;;;;;;;;;;;;;;29.73;35.93;96597.28;5072215;28;2003;-94
2021/08/07 04:29:31;;;;;;;;;;;;;;;29.75;36.15;96602.41;5054719;28;1233;-93
2021/08/07 04:31:56;;;;;;;;;;;;;;;29.84;35.88;96588.09;5058673;28;1325;-95
2021/08/07 04:34:21;;;;;;;;;;;;;;;29.62;36.35;96583.50;5098662;28;929;-96
2021/08/07 04:36:47;;;;;;;;;;;;;;;29.60;36.44;96594.31;5096331;28;1116;-94
2021/08/07 04:39:12;;;;;;;;;;;;;;;29.75;36.13;96591.78;5088591;28;1222;-94
2021/08/07 04:41:40;;;;;;;;;;;;;;;29.78;35.91;96596.75;5087695;28;1377;-95
2021/08/07 04:44:05;;;;;;;;;;;;;;;29.63;36.16;96601.13;5071819;28;1909;-94
2021/08/07 04:46:30;;;;;;;;;;;;;;;29.71;36.02;96614.41;5069890;28;1302;-94
2021/08/07 04:48:56;;;;;;;;;;;;;;;29.78;36.04;96619.84;5072324;28;1040;-94
2021/08/07 04:51:21;;;;;;;;;;;;;;;29.62;36.36;96618.88;5080568;28;1127;-94
2021/08/07 04:53:46;;;;;;;;;;;;;;;29.67;36.39;96621.03;5071170;28;1382;-94
2021/08/07 04:56:11;;;;;;;;;;;;;;;29.74;36.19;96625.50;5055092;28;1199;-94
2021/08/07 04:58:37;;;;;;;;;;;;;;;29.72;36.11;96616.88;5071231;28;1156;-93
2021/08/07 05:01:02;;;;;;;;;;;;;;;29.79;35.92;96611.72;5070853;28;1247;-94
2021/08/07 05:03:27;;;;;;;;;;;;;;;29.77;36.12;96612.88;5054721;28;1949;-94
2021/08/07 05:05:52;;;;;;;;;;;;;;;29.66;36.14;96617.56;5070884;28;1219;-95
2021/08/07 05:08:18;;;;;;;;;;;;;;;29.57;36.54;96607.13;5066345;28;1159;-94
2021/08/07 05:10:43;;;;;;;;;;;;;;;29.59;36.30;96591.84;5055554;28;1227;-94
2021/08/07 05:13:09;;;;;;;;;;;;;;;29.73;36.26;96591.97;5070729;28;2149;-94
2021/08/07 05:15:34;;;;;;;;;;;;;;;29.58;36.29;96593.66;5055159;28;1309;-94
2021/08/07 05:17:59;;;;;;;;;;;;;;;29.62;36.22;96602.94;5054832;28;1391;-94
2021/08/07 05:20:25;;;;;;;;;;;;;;;29.69;36.33;96598.59;5071296;28;1279;-94
2021/08/07 05:22:50;;;;;;;;;;;;;;;29.64;36.21;96606.28;5070547;28;1369;-94
2021/08/07 05:25:15;;;;;;;;;;;;;;;29.58;36.51;96604.28;5074841;28;1879;-94
2021/08/07 05:27:40;;;;;;;;;;;;;;;29.77;36.15;96607.56;5071299;28;1503;-94
2021/08/07 05:30:06;;;;;;;;;;;;;;;29.69;36.33;96598.59;5081890;28;1104;-94
2021/08/07 05:32:31;;;;;;;;;;;;;;;29.67;36.19;96597.13;5072493;28;1407;-94
2021/08/07 05:34:57;;;;;;;;;;;;;;;29.78;36.15;96588.78;5053364;28;1300;-94
2021/08/07 05:37:22;;;;;;;;;;;;;;;29.62;36.40;96588.81;5070991;28;1360;-94
2021/08/07 05:39:47;;;;;;;;;;;;;;;29.62;36.44;96575.53;5069971;28;1307;-94
2021/08/07 05:42:13;;;;;;;;;;;;;;;29.80;36.00;96586.81;5053944;28;1397;-94
2021/08/07 05:44:38;;;;;;;;;;;;;;;29.64;36.26;96587.69;5065785;28;1894;-95
2021/08/07 05:47:03;;;;;;;;;;;;;;;29.68;36.26;96588.97;5074802;28;1232;-94
2021/08/07 05:49:29;;;;;;;;;;;;;;;29.72;35.95;96598.28;5058548;28;1232;-94
2021/08/07 05:51:54;;;;;;;;;;;;;;;29.59;36.37;96597.97;5053044;28;1212;-94
2021/08/07 05:54:20;;;;;;;;;;;;;;;29.67;36.31;96595.31;5070751;28;1159;-94
2021/08/07 05:56:46;;;;;;;;;;;;;;;29.64;36.26;96598.31;5070279;28;1312;-94
2021/08/07 05:59:11;;;;;;;;;;;;;;;29.65;36.39;96592.00;5089898;28;1265;-94
2021/08/07 06:01:36;;;;;;;;;;;;;;;29.69;36.27;96593.28;5068928;28;1298;-95
2021/08/07 06:04:01;;;;;;;;;;;;;;;29.57;36.26;96581.38;5054216;28;1910;-94
2021/08/07 06:06:27;;;;;;;;;;;;;;;29.64;36.48;96582.38;5055514;28;1257;-94
2021/08/07 06:08:52;;;;;;;;;;;;;;;29.51;36.58;96576.75;5055003;28;1351;-94
2021/08/07 06:11:17;;;;;;;;;;;;;;;29.48;36.78;96577.88;5087471;28;1200;-94
2021/08/07 06:13:43;;;;;;;;;;;;;;;29.60;36.27;96581.03;5089568;28;1176;-94
2021/08/07 06:16:08;;;;;;;;;;;;;;;29.64;36.55;96581.53;5089232;28;1108;-94
2021/08/07 06:18:33;;;;;;;;;;;;;;;29.68;36.18;96583.66;5079181;28;1251;-95
2021/08/07 06:20:59;;;;;;;;;;;;;;;29.60;36.57;96583.69;5069360;28;1291;-94
2021/08/07 06:23:24;;;;;;;;;;;;;;;29.65;36.42;96589.34;5069385;28;1910;-93
2021/08/07 06:25:50;;;;;;;;;;;;;;;29.65;36.54;96599.97;5068897;28;1236;-94
2021/08/07 06:28:15;;;;;;;;;;;;;;;29.65;36.40;96599.97;5071745;28;1506;-94
2021/08/07 06:30:45;;;;;;;;;;;;;;;29.68;36.40;96593.47;5076944;28;1267;-94
2021/08/07 06:33:11;;;;;;;;;;;;;;;29.61;36.46;96593.31;5085186;28;1381;-94
2021/08/07 06:35:36;;;;;;;;;;;;;;;29.58;36.71;96580.38;5073302;28;1293;-96
2021/08/07 06:38:01;;;;;;;;;;;;;;;29.58;36.73;96558.28;5052565;28;1349;-94
2021/08/07 06:40:27;;;;;;;;;;;;;;;29.65;36.67;96549.47;5051831;28;1310;-94
2021/08/07 06:42:52;;;;;;;;;;;;;;;29.62;36.69;96562.25;5069758;28;1315;-94
2021/08/07 06:45:17;;;;;;;;;;;;;;;29.67;36.70;96578.53;5052154;28;1875;-94
2021/08/07 06:47:42;;;;;;;;;;;;;;;29.65;36.51;96575.22;5068257;28;1192;-94
2021/08/07 06:50:08;;;;;;;;;;;;;;;29.62;36.40;96580.84;5076429;28;1319;-94
2021/08/07 06:52:34;;;;;;;;;;;;;;;29.61;36.74;96580.03;5068824;28;1640;-94
2021/08/07 06:54:59;;;;;;;;;;;;;;;29.69;36.53;96585.31;5052328;28;1334;-94
2021/08/07 06:57:25;;;;;;;;;;;;;;;29.66;36.55;96585.66;5049597;28;1877;-93
2021/08/07 06:59:51;;;;;;;;;;;;;;;29.67;36.38;96582.00;5031525;28;1355;-94
2021/08/07 07:02:16;;;;;;;;;;;;;;;29.58;36.57;96580.38;5031662;28;1293;-93
2021/08/07 07:04:41;;;;;;;;;;;;;;;29.69;36.63;96579.19;5045869;28;1882;-95
2021/08/07 07:07:06;;;;;;;;;;;;;;;29.58;36.64;96579.56;5069354;28;1132;-96
2021/08/07 07:09:32;;;;;;;;;;;;;;;29.58;36.62;96580.38;5052151;28;1335;-94
2021/08/07 07:11:57;;;;;;;;;;;;;;;29.54;36.82;96589.66;5068156;28;1296;-95
2021/08/07 07:14:22;;;;;;;;;;;;;;;29.59;36.73;96579.38;5085354;28;1399;-94
2021/08/07 07:16:48;;;;;;;;;;;;;;;29.61;36.60;96584.50;5089064;28;1191;-94
2021/08/07 07:19:13;;;;;;;;;;;;;;;29.60;36.76;96585.53;5088272;28;1227;-94
2021/08/07 07:21:39;;;;;;;;;;;;;;;29.56;36.74;96585.03;5081111;28;1478;-94
2021/08/07 07:24:04;;;;;;;;;;;;;;;29.59;36.83;96574.06;5072289;28;1910;-94
2021/08/07 07:26:29;;;;;;;;;;;;;;;29.64;36.54;96577.06;5072417;28;1689;-93
2021/08/07 07:28:55;;;;;;;;;;;;;;;29.63;36.59;96572.75;5037641;28;1889;-94
2021/08/07 07:31:21;;;;;;;;;;;;;;;29.52;36.76;96577.56;5052321;28;800;-94
2021/08/07 07:33:46;;;;;;;;;;;;;;;29.60;36.73;96581.03;5034771;28;1213;-94
2021/08/07 07:36:11;;;;;;;;;;;;;;;29.65;36.52;96573.38;5058498;28;1200;-94
2021/08/07 07:38:37;;;;;;;;;;;;;;;29.71;36.65;96578.03;5058478;28;1309;-94
2021/08/07 07:41:02;;;;;;;;;;;;;;;29.59;36.51;96568.75;5060129;28;1217;-94
2021/08/07 07:43:27;;;;;;;;;;;;;;;29.64;36.54;96560.28;5073573;28;1886;-94
2021/08/07 07:45:52;;;;;;;;;;;;;;;29.60;36.67;96570.41;5072194;28;1053;-94
2021/08/07 07:48:18;;;;;;;;;;;;;;;29.63;36.52;96559.44;5055018;28;1380;-94
2021/08/07 07:50:43;;;;;;;;;;;;;;;29.61;36.78;96558.78;5071053;28;1065;-94
2021/08/07 07:53:08;;;;;;;;;;;;;;;29.75;36.44;96566.03;5055116;28;1430;-94
2021/08/07 07:55:34;;;;;;;;;;;;;;;29.77;36.60;96555.22;5088677;28;1321;-94
2021/08/07 07:58:00;;;;;;;;;;;;;;;29.61;36.53;96542.84;5087329;28;863;-94
2021/08/07 08:00:25;;;;;;;;;;;;;;;29.64;36.91;96539.84;5089289;28;1263;-94
2021/08/07 08:02:51;;;;;;;;;;;;;;;29.59;36.73;96536.03;5086088;28;1219;-94
2021/08/07 08:05:17;;;;;;;;;;;;;;;29.52;36.69;96535.06;5086979;28;1963;-95
2021/08/07 08:07:42;;;;;;;;;;;;;;;29.52;36.91;96532.41;5076674;28;1209;-93
2021/08/07 08:10:08;;;;;;;;;;;;;;;29.54;36.69;96530.41;5053928;28;1228;-94
2021/08/07 08:12:33;;;;;;;;;;;;;;;29.62;36.65;96533.84;5070702;28;1212;-94
2021/08/07 08:14:58;;;;;;;;;;;;;;;29.66;36.47;96537.00;5086887;28;1391;-94
2021/08/07 08:17:24;;;;;;;;;;;;;;;29.67;36.66;96538.66;5083864;28;1294;-95
2021/08/07 08:20:10;;;;;;;;;;;;;;;29.66;36.73;96535.19;5050924;28;1158;-94
2021/08/07 08:22:35;;;;;;;;;;;;;;;29.63;36.59;96537.38;5069721;28;1300;-94
2021/08/07 08:25:00;;;;;;;;;;;;;;;29.58;36.86;96535.22;5053593;28;1898;-94
2021/08/07 08:27:26;;;;;;;;;;;;;;;29.72;36.44;96537.16;5074819;28;1313;-94
2021/08/07 08:29:51;;;;;;;;;;;;;;;29.55;36.74;96546.19;5076815;28;1294;-94
2021/08/07 08:32:16;;;;;;;;;;;;;;;29.60;36.84;96546.50;5069791;28;1377;-94
2021/08/07 08:34:42;;;;;;;;;;;;;;;29.57;36.86;96546.84;5069594;28;1372;-94
2021/08/07 08:37:07;;;;;;;;;;;;;;;29.65;36.92;96544.16;5075589;28;1204;-94
2021/08/07 08:39:33;;;;;;;;;;;;;;;29.64;36.61;96547.00;5076242;28;1442;-93
2021/08/07 08:41:58;;;;;;;;;;;;;;;29.69;36.49;96544.63;5077625;28;1303;-94
2021/08/07 08:44:23;;;;;;;;;;;;;;;29.65;36.66;96546.00;5063846;28;1874;-94
2021/08/07 08:46:49;;;;;;;;;;;;;;;29.51;36.90;96544.88;5054244;28;1763;-94
2021/08/07 08:49:15;;;;;;;;;;;;;;;29.65;36.72;96546.00;5070626;28;1125;-94
2021/08/07 08:51:40;;;;;;;;;;;;;;;29.62;36.69;96541.00;5053308;28;1381;-94
2021/08/07 08:54:05;;;;;;;;;;;;;;;29.65;36.48;96546.00;5051778;28;1491;-94
2021/08/07 08:56:34;;;;;;;;;;;;;;;29.71;36.59;96540.00;5050991;28;1068;-94
2021/08/07 08:59:01;;;;;;;;;;;;;;;29.63;36.81;96535.53;5041547;28;1344;-94
2021/08/07 09:01:26;;;;;;;;;;;;;;;29.69;36.42;96537.50;5069164;28;1270;-94
2021/08/07 09:03:52;;;;;;;;;;;;;;;29.68;36.49;96527.03;5084689;28;1882;-94
2021/08/07 09:06:17;;;;;;;;;;;;;;;29.57;36.89;96514.97;5073000;28;1313;-94
2021/08/07 09:08:58;;;;;;;;;;;;;;;29.76;36.40;96503.09;5054276;28;1334;-93
2021/08/07 09:11:23;;;;;;;;;;;;;;;29.65;36.77;96500.81;5051248;28;926;-95
2021/08/07 09:13:51;;;;;;;;;;;;;;;29.70;36.61;96491.34;5052266;28;1316;-93
2021/08/07 09:16:16;;;;;;;;;;;;;;;29.64;36.79;96486.72;5052275;28;1209;-94
2021/08/07 09:18:42;;;;;;;;;;;;;;;29.71;36.52;96486.84;5051720;28;1172;-94
2021/08/07 09:21:14;;;;;;;;;;;;;;;29.63;36.40;96495.69;5086032;28;1258;-94
2021/08/07 09:23:40;;;;;;;;;;;;;;;29.57;36.73;96495.53;5059689;28;1985;-93
2021/08/07 09:26:26;;;;;;;;;;;;;;;29.51;36.94;96494.38;5068294;28;1274;-94
2021/08/07 09:28:52;;;;;;;;;;;;;;;29.64;36.64;96496.50;5050873;28;1259;-94
2021/08/07 09:31:18;;;;;;;;;;;;;;;29.67;36.37;96496.16;5051737;28;1251;-94
2021/08/07 09:33:43;;;;;;;;;;;;;;;29.79;36.33;96499.28;5068043;28;1240;-94
2021/08/07 09:36:08;;;;;;;;;;;;;;;29.63;36.62;96501.00;5053751;28;1337;-94
2021/08/07 09:38:34;;;;;;;;;;;;;;;29.68;36.70;96493.31;5053500;28;1286;-94
2021/08/07 09:41:03;;;;;;;;;;;;;;;29.68;36.68;96498.63;5052937;28;1573;-94
2021/08/07 09:43:31;;;;;;;;;;;;;;;29.70;36.40;96493.13;5035430;28;1902;-93
2021/08/07 09:46:02;;;;;;;;;;;;;;;29.58;36.63;96499.84;5076392;28;1310;-94
2021/08/07 09:48:32;;;;;;;;;;;;;;;29.69;36.44;96496.81;5077216;28;1409;-95
2021/08/07 09:50:57;;;;;;;;;;;;;;;29.76;36.49;96503.09;5070433;28;1322;-94
2021/08/07 09:53:27;;;;;;;;;;;;;;;29.62;36.71;96493.16;5053363;28;1402;-94
2021/08/07 09:55:59;;;;;;;;;;;;;;;29.53;36.87;96500.34;5053731;28;1335;-95
2021/08/07 09:58:25;;;;;;;;;;;;;;;29.59;36.87;96490.88;5070654;28;1355;-95
2021/08/07 10:00:50;;;;;;;;;;;;;;;29.56;36.95;96486.75;5071441;28;874;-94
2021/08/07 10:03:18;;;;;;;;;;;;;;;29.67;36.83;96481.03;5069460;28;1914;-94
2021/08/07 10:05:44;;;;;;;;;;;;;;;29.47;37.10;96479.78;5069599;28;855;-94
2021/08/07 10:08:11;;;;;;;;;;;;;;;29.69;36.53;96462.25;5053170;28;911;-94
2021/08/07 10:10:36;;;;;;;;;;;;;;;29.71;36.75;96461.09;5052663;28;1255;-94
2021/08/07 10:13:01;;;;;;;;;;;;;;;29.57;36.74;96453.84;5084102;28;1379;-94
2021/08/07 10:15:27;;;;;;;;;;;;;;;29.64;36.76;96457.47;5072311;28;1311;-94
2021/08/07 10:17:52;;;;;;;;;;;;;;;29.68;36.82;96455.28;5080866;28;1072;-94
2021/08/07 10:20:17;;;;;;;;;;;;;;;29.45;37.03;96436.59;5056056;28;1312;-94
2021/08/07 10:22:43;;;;;;;;;;;;;;;29.60;36.92;96431.41;5052449;28;1327;-95
2021/08/07 10:25:10;;;;;;;;;;;;;;;29.63;36.64;96434.56;5049632;28;1887;-94
2021/08/07 10:27:35;;;;;;;;;;;;;;;29.81;36.45;96433.47;5053399;28;1280;-94
2021/08/07 10:30:01;;;;;;;;;;;;;;;29.75;36.47;96435.00;5053326;28;1197;-95
2021/08/07 10:32:26;;;;;;;;;;;;;;;29.69;36.51;96433.84;5053066;28;1322;-94
2021/08/07 10:34:52;;;;;;;;;;;;;;;29.62;36.64;96435.53;5069278;28;1271;-94
2021/08/07 10:37:17;;;;;;;;;;;;;;;29.63;36.87;96434.56;5069468;28;1299;-94
2021/08/07 10:39:42;;;;;;;;;;;;;;;29.54;36.99;96432.94;5054142;28;1135;-94
2021/08/07 10:42:08;;;;;;;;;;;;;;;29.68;36.71;96429.53;5034663;28;1272;-94
2021/08/07 10:44:34;;;;;;;;;;;;;;;29.67;36.64;96432.38;5044038;28;1965;-94
2021/08/07 10:46:59;;;;;;;;;;;;;;;29.74;36.56;96434.16;5068854;28;1241;-94
2021/08/07 10:49:45;;;;;;;;;;;;;;;29.64;36.89;96433.56;5068691;28;1619;-94
2021/08/07 10:52:22;;;;;;;;;;;;;;;29.64;36.57;96425.59;5069361;28;1417;-94
2021/08/07 10:54:48;;;;;;;;;;;;;;;29.60;36.96;96426.94;5054969;28;1273;-94
2021/08/07 10:57:34;;;;;;;;;;;;;;;29.58;36.95;96428.94;5053306;28;2046;-94
2021/08/07 11:00:00;;;;;;;;;;;;;;;29.59;36.79;96429.75;5051632;28;1385;-94
2021/08/07 11:02:25;;;;;;;;;;;;;;;29.66;36.60;96434.22;5052268;28;1295;-94
2021/08/07 11:04:52;;;;;;;;;;;;;;;29.75;36.62;96435.81;5051619;28;1941;-94
2021/08/07 11:07:19;;;;;;;;;;;;;;;29.79;36.35;96433.66;5052676;28;1211;-94
2021/08/07 11:09:44;;;;;;;;;;;;;;;29.72;36.42;96435.34;5052744;28;1207;-94
2021/08/07 11:12:13;;;;;;;;;;;;;;;29.63;36.95;96428.44;5053272;28;1408;-94
2021/08/07 11:14:45;;;;;;;;;;;;;;;29.61;37.03;96428.59;5051295;28;1220;-94
2021/08/07 11:17:10;;;;;;;;;;;;;;;29.67;36.41;96422.56;5051565;28;1371;-94
2021/08/07 11:20:00;;;;;;;;;;;;;;;29.70;36.65;96424.91;5051891;28;1494;-93
2021/08/07 11:22:31;;;;;;;;;;;;;;;29.62;36.68;96424.09;5076669;28;1657;-94
2021/08/07 11:24:57;;;;;;;;;;;;;;;29.68;36.70;96429.53;5052866;28;1902;-94
2021/08/07 11:27:41;;;;;;;;;;;;;;;29.67;36.63;96419.09;5070484;28;1243;-94
2021/08/07 11:30:18;;;;;;;;;;;;;;;29.54;36.93;96411.69;5071393;28;1259;-95
2021/08/07 11:32:56;;;;;;;;;;;;;;;29.56;36.87;96412.34;5081739;28;1336;-94
2021/08/07 11:35:30;;;;;;;;;;;;;;;29.58;36.63;96397.06;5071579;28;1065;-94
2021/08/07 11:38:14;;;;;;;;;;;;;;;29.67;36.70;96392.53;5070570;28;1224;-94
2021/08/07 11:40:42;;;;;;;;;;;;;;;29.53;37.01;96396.75;5074849;28;1342;-94
2021/08/07 11:43:14;;;;;;;;;;;;;;;29.64;37.01;96401.69;5082397;28;1946;-94
2021/08/07 11:45:40;;;;;;;;;;;;;;;29.55;37.12;96397.41;5070221;28;1359;-94
2021/08/07 11:48:05;;;;;;;;;;;;;;;29.56;37.05;96393.75;5053581;28;1294;-94
2021/08/07 11:50:31;;;;;;;;;;;;;;;29.59;36.89;96393.41;5052337;28;872;-94
2021/08/07 11:52:56;;;;;;;;;;;;;;;29.53;36.71;96394.09;5049434;28;1274;-94
2021/08/07 11:55:21;;;;;;;;;;;;;;;29.63;36.54;96393.91;5051287;28;919;-94
2021/08/07 11:57:46;;;;;;;;;;;;;;;29.55;36.88;96393.94;5078819;28;1970;-94
2021/08/07 12:00:32;;;;;;;;;;;;;;;29.69;36.74;96398.47;5070402;28;1060;-94
2021/08/07 12:02:58;;;;;;;;;;;;;;;29.63;36.93;96391.22;5072602;28;1301;-94
2021/08/07 12:05:27;;;;;;;;;;;;;;;29.71;36.46;96385.88;5063413;28;1883;-94
2021/08/07 12:08:06;;;;;;;;;;;;;;;29.58;36.67;96385.59;5071819;28;1232;-94
2021/08/07 12:10:32;;;;;;;;;;;;;;;29.46;37.14;96379.81;5071682;28;1220;-94
2021/08/07 12:12:57;;;;;;;;;;;;;;;29.49;37.00;96366.19;5071916;28;1319;-94
2021/08/07 12:15:23;;;;;;;;;;;;;;;29.69;36.55;96356.78;5051282;28;1270;-94
2021/08/07 12:17:48;;;;;;;;;;;;;;;29.58;36.82;96351.91;5059057;28;1196;-94
2021/08/07 12:20:14;;;;;;;;;;;;;;;29.63;36.86;96351.38;5071926;28;1001;-94
2021/08/07 12:22:52;;;;;;;;;;;;;;;29.62;36.99;96347.03;5055126;28;1437;-94
2021/08/07 12:25:18;;;;;;;;;;;;;;;29.57;36.87;96344.94;5054377;28;1962;-94
2021/08/07 12:27:59;;;;;;;;;;;;;;;29.64;36.82;96340.56;5070335;28;1365;-95
2021/08/07 12:30:24;;;;;;;;;;;;;;;29.61;36.92;96340.91;5070219;28;1203;-94
2021/08/07 12:33:09;;;;;;;;;;;;;;;29.55;36.88;96338.97;5058864;28;1524;-95
2021/08/07 12:35:35;;;;;;;;;;;;;;;29.63;36.71;96333.59;5070986;28;1207;-94
2021/08/07 12:38:00;;;;;;;;;;;;;;;29.52;37.14;96336.66;5053770;28;1249;-94
2021/08/07 12:40:25;;;;;;;;;;;;;;;29.53;37.14;96343.59;5054392;28;1041;-94
2021/08/07 12:42:51;;;;;;;;;;;;;;;29.51;36.95;96342.97;5054760;28;1865;-94
2021/08/07 12:45:17;;;;;;;;;;;;;;;29.61;36.76;96334.75;5053698;28;1964;-94
2021/08/07 12:47:42;;;;;;;;;;;;;;;29.55;37.05;96328.34;5054646;28;898;-94
2021/08/07 12:50:18;;;;;;;;;;;;;;;29.53;37.10;96327.66;5053993;28;1205;-94
2021/08/07 12:52:49;;;;;;;;;;;;;;;29.56;36.71;96337.16;5054708;28;1303;-94
2021/08/07 12:55:18;;;;;;;;;;;;;;;29.55;36.76;96338.97;5073654;28;1045;-94